createdAt,value
2018-07-11T00:01:41.655Z,4.70
2018-07-11T00:04:12.311Z,4.30
2018-07-11T00:06:41.255Z,4.77
2018-07-11T00:09:10.028Z,4.80
2018-07-11T00:11:38.146Z,5.40
2018-07-11T00:14:07.025Z,4.70
2018-07-11T00:16:36.218Z,5.03
2018-07-11T00:19:04.944Z,5.80
2018-07-11T00:21:33.350Z,4.83
2018-07-11T00:24:01.874Z,5.37
2018-07-11T00:26:29.974Z,4.97
2018-07-11T00:28:59.711Z,5.77
2018-07-11T00:31:27.880Z,6.37
2018-07-11T00:33:56.998Z,5.60
2018-07-11T00:36:25.921Z,5.70
2018-07-11T00:38:54.611Z,5.10
2018-07-11T00:41:25.697Z,5.53
2018-07-11T00:43:54.845Z,5.20
2018-07-11T00:46:25.034Z,5.53
2018-07-11T00:48:53.737Z,5.13
2018-07-11T00:51:23.861Z,5.03
2018-07-11T00:53:52.930Z,5.03
2018-07-11T00:56:22.134Z,5.20
2018-07-11T00:58:53.493Z,5.60
2018-07-11T01:01:22.225Z,5.37
2018-07-11T01:03:50.915Z,5.43
2018-07-11T01:06:20.552Z,5.40
2018-07-11T01:08:51.688Z,5.90
2018-07-11T01:11:21.618Z,6.27
2018-07-11T01:13:51.439Z,5.37
2018-07-11T01:16:20.638Z,5.73
2018-07-11T01:18:54.227Z,5.60
2018-07-11T01:21:24.831Z,5.20
2018-07-11T01:23:53.447Z,5.30
2018-07-11T01:26:24.899Z,4.90
2018-07-11T01:28:55.384Z,5.03
2018-07-11T01:31:24.770Z,5.50
2018-07-11T01:33:53.574Z,5.70
2018-07-11T01:36:24.793Z,5.60
2018-07-11T01:38:53.299Z,5.50
2018-07-11T01:41:22.308Z,5.37
2018-07-11T01:43:50.931Z,6.20
2018-07-11T01:46:20.884Z,6.07
2018-07-11T01:48:49.417Z,6.00
2018-07-11T01:51:19.286Z,6.10
2018-07-11T01:53:50.087Z,6.03
2018-07-11T01:56:20.228Z,6.23
2018-07-11T01:58:48.816Z,6.17
2018-07-11T02:01:17.025Z,6.00
2018-07-11T02:03:45.215Z,6.30
2018-07-11T02:06:14.615Z,6.30
2018-07-11T02:08:44.566Z,6.50
2018-07-11T02:11:13.264Z,6.60
2018-07-11T02:13:41.742Z,6.50
2018-07-11T02:16:11.287Z,7.13
2018-07-11T02:18:39.679Z,7.20
2018-07-11T02:21:08.316Z,6.90
2018-07-11T02:23:39.830Z,7.10
2018-07-11T02:26:08.503Z,7.23
2018-07-11T02:28:37.250Z,7.63
2018-07-11T02:31:07.082Z,7.60
2018-07-11T02:33:36.970Z,8.40
2018-07-11T02:36:05.865Z,8.03
2018-07-11T02:38:35.133Z,8.70
2018-07-11T02:41:04.871Z,8.67
2018-07-11T02:43:33.408Z,9.03
2018-07-11T02:46:02.064Z,9.10
2018-07-11T02:48:30.311Z,9.00
2018-07-11T02:50:59.831Z,8.90
2018-07-11T02:53:28.281Z,9.53
2018-07-11T02:55:57.928Z,9.17
2018-07-11T02:58:27.293Z,7.53
2018-07-11T03:00:56.199Z,7.97
2018-07-11T03:03:24.727Z,7.97
2018-07-11T03:05:52.778Z,8.27
2018-07-11T03:08:21.789Z,7.40
2018-07-11T03:10:50.942Z,8.10
2018-07-11T03:13:21.182Z,7.40
2018-07-11T03:24:39.692Z,7.67
2018-07-11T03:27:08.349Z,7.70
2018-07-11T03:29:37.442Z,7.53
2018-07-11T03:32:05.903Z,6.63
2018-07-11T03:34:34.614Z,6.80
2018-07-11T03:37:03.894Z,5.77
2018-07-11T03:39:33.546Z,5.77
2018-07-11T03:42:03.535Z,4.90
2018-07-11T03:44:31.909Z,5.20
2018-07-11T03:47:00.814Z,4.70
2018-07-11T03:49:29.321Z,4.53
2018-07-11T03:51:57.768Z,4.77
2018-07-11T03:54:26.378Z,4.40
2018-07-11T03:56:55.297Z,4.87
2018-07-11T03:59:24.822Z,5.20
2018-07-11T04:01:53.027Z,4.90
2018-07-11T04:04:21.528Z,4.90
2018-07-11T04:06:49.859Z,4.90
2018-07-11T04:09:18.406Z,4.77
2018-07-11T04:11:47.646Z,4.70
2018-07-11T04:14:16.573Z,4.87
2018-07-11T04:16:45.684Z,4.90
2018-07-11T04:19:16.058Z,4.60
2018-07-11T04:21:44.348Z,5.00
2018-07-11T04:24:12.948Z,4.40
2018-07-11T04:26:41.535Z,4.97
2018-07-11T04:29:09.910Z,4.63
2018-07-11T04:31:38.206Z,5.50
2018-07-11T04:34:06.839Z,4.97
2018-07-11T04:36:35.271Z,4.67
2018-07-11T04:39:05.264Z,5.10
2018-07-11T04:41:33.661Z,4.97
2018-07-11T04:44:03.046Z,5.17
2018-07-11T04:46:31.709Z,5.03
2018-07-11T04:49:00.111Z,4.93
2018-07-11T04:51:29.819Z,5.50
2018-07-11T04:53:58.401Z,5.40
2018-07-11T04:56:27.525Z,5.70
2018-07-11T04:58:56.765Z,5.50
2018-07-11T05:01:25.493Z,5.70
2018-07-11T05:03:54.049Z,5.10
2018-07-11T05:06:23.029Z,5.43
2018-07-11T05:08:53.382Z,5.67
2018-07-11T05:11:21.714Z,5.20
2018-07-11T05:13:51.423Z,6.07
2018-07-11T05:16:19.765Z,5.43
2018-07-11T05:18:48.154Z,4.80
2018-07-11T05:21:16.778Z,5.17
2018-07-11T05:23:45.231Z,5.37
2018-07-11T05:26:13.672Z,4.80
2018-07-11T05:28:42.056Z,6.00
2018-07-11T05:31:10.288Z,6.10
2018-07-11T05:33:38.551Z,5.30
2018-07-11T05:36:07.590Z,5.00
2018-07-11T05:38:35.666Z,5.10
2018-07-11T05:41:04.818Z,6.00
2018-07-11T05:43:34.560Z,5.20
2018-07-11T05:46:02.750Z,5.53
2018-07-11T05:48:32.328Z,5.33
2018-07-11T05:51:02.340Z,5.50
2018-07-11T05:53:32.095Z,5.10
2018-07-11T05:56:01.904Z,5.90
2018-07-11T05:58:31.191Z,5.30
2018-07-11T06:01:00.468Z,6.57
2018-07-11T06:03:29.443Z,5.70
2018-07-11T06:05:58.324Z,5.23
2018-07-11T06:08:26.815Z,5.57
2018-07-11T06:10:55.099Z,5.27
2018-07-11T06:13:24.217Z,5.10
2018-07-11T06:15:52.571Z,5.30
2018-07-11T06:18:21.761Z,5.20
2018-07-11T06:20:51.230Z,5.00
2018-07-11T06:23:19.748Z,4.77
2018-07-11T06:25:51.283Z,4.67
2018-07-11T06:28:20.591Z,4.80
2018-07-11T06:30:49.588Z,5.23
2018-07-11T06:33:18.321Z,5.07
2018-07-11T06:35:47.201Z,5.20
2018-07-11T06:38:15.863Z,5.70
2018-07-11T06:40:44.513Z,5.13
2018-07-11T06:43:12.994Z,3.80
2018-07-11T06:45:41.416Z,3.20
2018-07-11T06:48:11.439Z,4.30
2018-07-11T06:50:39.934Z,4.20
2018-07-11T06:53:08.500Z,3.60
2018-07-11T06:55:46.581Z,3.73
2018-07-11T06:58:17.084Z,3.53
2018-07-11T07:00:47.755Z,4.03
2018-07-11T07:03:16.329Z,4.40
2018-07-11T07:05:45.294Z,4.03
2018-07-11T07:08:14.460Z,3.93
2018-07-11T07:10:43.718Z,4.30
2018-07-11T07:13:11.820Z,3.80
2018-07-11T07:15:41.102Z,4.40
2018-07-11T07:18:09.572Z,4.47
2018-07-11T07:20:39.403Z,4.30
2018-07-11T07:23:08.769Z,4.33
2018-07-11T07:25:37.771Z,4.30
2018-07-11T07:28:06.052Z,4.60
2018-07-11T07:30:35.052Z,4.20
2018-07-11T07:33:03.410Z,4.83
2018-07-11T07:35:32.328Z,4.80
2018-07-11T07:38:00.913Z,4.33
2018-07-11T07:40:29.394Z,4.50
2018-07-11T07:42:59.534Z,3.93
2018-07-11T07:45:28.808Z,4.77
2018-07-11T07:47:57.706Z,4.23
2018-07-11T07:50:26.512Z,4.50
2018-07-11T07:52:58.284Z,5.10
2018-07-11T07:55:28.400Z,5.17
2018-07-11T07:57:59.113Z,4.73
2018-07-11T08:00:28.715Z,5.53
2018-07-11T08:02:57.564Z,5.80
2018-07-11T08:05:28.372Z,5.00
2018-07-11T08:07:57.778Z,5.73
2018-07-11T08:10:26.470Z,7.73
2018-07-11T08:12:55.499Z,5.47
2018-07-11T08:15:24.910Z,5.57
2018-07-11T08:17:53.673Z,5.07
2018-07-11T08:20:24.008Z,5.20
2018-07-11T08:25:01.208Z,6.33
2018-07-11T08:29:39.371Z,6.63
2018-07-11T08:38:32.703Z,7.23
2018-07-11T08:43:11.410Z,6.30
2018-07-11T08:45:51.136Z,6.73
2018-07-11T08:48:25.392Z,6.50
2018-07-11T08:53:04.271Z,6.03
2018-07-11T08:56:35.558Z,5.30
2018-07-11T08:59:10.428Z,5.87
2018-07-11T09:01:48.475Z,5.10
2018-07-11T09:04:25.513Z,5.70
2018-07-11T09:07:03.569Z,5.83
2018-07-11T09:09:37.583Z,4.93
2018-07-11T09:12:11.654Z,5.50
2018-07-11T09:14:45.156Z,4.33
2018-07-11T09:17:18.722Z,4.00
2018-07-11T09:19:51.860Z,4.20
2018-07-11T09:22:28.171Z,4.40
2018-07-11T09:25:02.479Z,4.43
2018-07-11T09:27:31.776Z,4.23
2018-07-11T09:30:02.603Z,3.67
2018-07-11T09:32:31.753Z,3.53
2018-07-11T09:35:02.832Z,4.40
2018-07-11T09:37:31.509Z,4.77
2018-07-11T09:40:03.176Z,5.33
2018-07-11T09:42:34.577Z,4.20
2018-07-11T09:45:09.803Z,4.07
2018-07-11T09:47:42.176Z,3.87
2018-07-11T09:50:13.120Z,4.37
2018-07-11T09:52:42.653Z,5.07
2018-07-11T09:55:12.625Z,4.40
2018-07-11T09:57:41.749Z,3.60
2018-07-11T10:00:16.327Z,4.23
2018-07-11T10:02:45.637Z,4.73
2018-07-11T10:05:15.027Z,5.50
2018-07-11T10:07:43.823Z,5.40
2018-07-11T10:10:15.192Z,5.23
2018-07-11T10:12:46.360Z,4.40
2018-07-11T10:15:17.139Z,4.97
2018-07-11T10:17:46.078Z,4.17
2018-07-11T10:20:15.504Z,4.97
2018-07-11T10:22:44.187Z,4.17
2018-07-11T10:25:16.128Z,3.43
2018-07-11T10:27:45.226Z,4.53
2018-07-11T10:30:14.084Z,4.30
2018-07-11T10:32:44.562Z,4.10
2018-07-11T10:35:13.471Z,4.07
2018-07-11T10:37:41.628Z,4.20
2018-07-11T10:40:10.863Z,4.50
2018-07-11T10:42:39.691Z,3.60
2018-07-11T10:45:08.779Z,4.23
2018-07-11T10:47:37.354Z,3.47
2018-07-11T10:50:07.012Z,3.73
2018-07-11T10:52:35.499Z,2.90
2018-07-11T10:55:07.796Z,2.90
2018-07-11T10:57:38.263Z,2.67
2018-07-11T11:00:11.355Z,3.10
2018-07-11T11:02:43.201Z,2.07
2018-07-11T11:05:13.537Z,2.00
2018-07-11T11:07:42.313Z,1.70
2018-07-11T11:10:11.063Z,1.60
2018-07-11T11:12:39.793Z,2.40
2018-07-11T11:15:09.914Z,1.70
2018-07-11T11:17:41.018Z,3.30
2018-07-11T11:20:11.757Z,4.73
2018-07-11T11:22:40.141Z,4.13
2018-07-11T11:25:08.525Z,3.47
2018-07-11T11:27:37.834Z,4.40
2018-07-11T11:30:07.518Z,3.70
2018-07-11T11:32:36.151Z,4.20
2018-07-11T11:35:04.689Z,4.27
2018-07-11T11:37:33.340Z,4.77
2018-07-11T11:40:02.634Z,4.17
2018-07-11T11:42:31.968Z,4.00
2018-07-11T11:48:21.274Z,3.60
2018-07-11T11:50:50.744Z,4.40
2018-07-11T11:53:19.113Z,5.13
2018-07-11T11:55:47.390Z,5.53
2018-07-11T11:58:16.505Z,4.57
2018-07-11T12:00:44.737Z,4.50
2018-07-11T12:03:13.548Z,4.10
2018-07-11T12:05:41.916Z,4.00
